Time;durP1;ratioP1;P1;durP2;ratioP2;P2;SDS_P1;SDS_P2;PMS_P1;PMS_P2;Temp;Humidity;BMP_temperature;BMP_pressure;BME280_temperature;BME280_humidity;BME280_pressure;Samples;Min_cycle;Max_cycle;Signal;HPM_P1;HPM_P2
2021/07/15 00:00:18;;;;;;;16.27;10.93;;;;;;;21.47;91.55;99353.92;1603856;88;21057;-68
2021/07/15 00:02:46;;;;;;;17.77;10.93;;;;;;;21.42;91.68;99352.91;1612765;87;21251;-67
2021/07/15 00:05:14;;;;;;;17.17;10.98;;;;;;;21.38;91.70;99360.47;1623867;87;21096;-67
2021/07/15 00:07:40;;;;;;;16.17;10.88;;;;;;;21.36;91.88;99355.90;1623679;87;20958;-67
2021/07/15 00:10:29;;;;;;;16.35;10.08;;;;;;;21.36;92.14;99358.69;1620179;87;22056;-68
2021/07/15 00:12:57;;;;;;;19.85;10.93;;;;;;;21.36;92.35;99357.30;1615254;87;21014;-67
2021/07/15 00:15:26;;;;;;;18.52;11.53;;;;;;;21.35;92.26;99358.48;1570392;88;21036;-68
2021/07/15 00:17:55;;;;;;;19.45;10.80;;;;;;;21.32;92.36;99359.27;1608982;87;21591;-68
2021/07/15 00:20:24;;;;;;;21.37;10.88;;;;;;;21.30;92.26;99357.47;1620468;87;21045;-68
2021/07/15 00:22:51;;;;;;;18.15;10.98;;;;;;;21.28;92.12;99354.27;1615462;87;21223;-68
2021/07/15 00:25:21;;;;;;;14.53;10.32;;;;;;;21.27;92.05;99351.27;1619780;87;21076;-68
2021/07/15 00:27:49;;;;;;;17.55;10.23;;;;;;;21.25;92.13;99348.07;1607191;88;21021;-67
2021/07/15 00:30:16;;;;;;;18.90;11.22;;;;;;;21.21;91.96;99357.83;1599672;87;21128;-67
2021/07/15 00:32:43;;;;;;;18.15;11.00;;;;;;;21.18;92.00;99361.37;1670278;84;20956;-68
2021/07/15 00:35:12;;;;;;;23.12;11.25;;;;;;;21.12;92.17;99355.95;1643959;86;21422;-68
2021/07/15 00:37:38;;;;;;;16.12;11.28;;;;;;;21.08;92.30;99362.11;1674402;85;20947;-67
2021/07/15 00:40:07;;;;;;;21.10;10.13;;;;;;;21.05;92.40;99356.71;1679137;84;21081;-68
2021/07/15 00:42:36;;;;;;;15.90;10.15;;;;;;;21.03;92.56;99351.31;1674487;85;21182;-67
2021/07/15 00:45:07;;;;;;;17.48;10.32;;;;;;;21.01;92.78;99361.47;1675831;84;21040;-67
2021/07/15 00:47:33;;;;;;;16.73;10.53;;;;;;;21.00;92.74;99361.27;1643655;85;21120;-66
2021/07/15 00:50:03;;;;;;;18.48;10.88;;;;;;;20.97;92.89;99357.86;1570284;87;21483;-67
2021/07/15 00:52:31;;;;;;;20.95;12.23;;;;;;;20.95;92.85;99358.84;1597956;88;21523;-68
2021/07/15 00:54:59;;;;;;;21.37;12.20;;;;;;;20.94;92.96;99357.84;1670737;84;20985;-68
2021/07/15 00:57:26;;;;;;;23.45;10.50;;;;;;;20.92;93.10;99360.22;1606923;88;21004;-68
2021/07/15 00:59:54;;;;;;;22.22;10.20;;;;;;;20.91;92.89;99366.39;1675133;84;21171;-68
2021/07/15 01:02:22;;;;;;;28.92;11.33;;;;;;;20.90;92.97;99359.81;1676923;85;21008;-67
2021/07/15 01:04:48;;;;;;;17.30;10.53;;;;;;;20.87;92.91;99361.98;1670490;84;21031;-67
2021/07/15 01:07:17;;;;;;;24.18;11.60;;;;;;;20.87;92.93;99363.38;1675756;84;21033;-67
2021/07/15 01:09:44;;;;;;;17.75;11.28;;;;;;;20.84;92.91;99363.55;1655827;84;21037;-67
2021/07/15 01:12:53;;;;;;;19.92;11.12;;;;;;;20.82;93.05;99358.16;1659364;84;21386;-67
2021/07/15 01:15:24;;;;;;;14.43;10.90;;;;;;;20.79;92.92;99369.53;1686215;84;21032;-68
2021/07/15 01:18:01;;;;;;;19.52;10.98;;;;;;;20.77;93.09;99366.33;1652550;84;20881;-67
2021/07/15 01:21:03;;;;;;;14.87;11.12;;;;;;;20.75;93.05;99370.10;1675980;85;21511;-66
2021/07/15 01:23:55;;;;;;;19.73;10.53;;;;;;;20.73;93.12;99362.72;1667316;84;21497;-67
2021/07/15 01:27:14;;;;;;;24.02;11.85;;;;;;;20.68;93.12;99361.69;1674113;84;21150;-67
2021/07/15 01:30:16;;;;;;;15.13;10.88;;;;;;;20.65;93.31;99368.03;1673005;85;21104;-68
2021/07/15 01:33:04;;;;;;;21.05;11.43;;;;;;;20.61;93.73;99358.84;1660043;86;21465;-68
2021/07/15 01:35:43;;;;;;;22.00;10.70;;;;;;;20.61;93.88;99360.23;1610923;87;21477;-68
2021/07/15 01:38:11;;;;;;;19.42;10.75;;;;;;;20.59;93.95;99361.22;1599172;87;21106;-68
2021/07/15 01:40:53;;;;;;;25.37;11.10;;;;;;;20.58;93.87;99364.60;1622084;87;21179;-68
2021/07/15 01:43:43;;;;;;;15.72;10.58;;;;;;;20.55;93.69;99359.00;1626232;86;21707;-68
2021/07/15 01:46:10;;;;;;;16.02;10.43;;;;;;;20.51;94.03;99358.17;1605605;87;21709;-68
2021/07/15 01:48:38;;;;;;;19.95;11.88;;;;;;;20.51;94.23;99365.14;1698313;83;20999;-68
2021/07/15 01:51:05;;;;;;;17.82;11.05;;;;;;;20.48;94.18;99368.70;1693166;83;21119;-67
2021/07/15 01:53:32;;;;;;;17.62;10.40;;;;;;;20.46;94.14;99369.08;1635898;86;21118;-67
2021/07/15 01:55:59;;;;;;;16.35;9.80;;;;;;;20.41;94.17;99362.47;1610905;88;21049;-68
2021/07/15 01:58:28;;;;;;;24.10;9.78;;;;;;;20.39;94.17;99362.05;1586035;88;21643;-68
2021/07/15 02:00:55;;;;;;;21.30;10.23;;;;;;;20.38;94.15;99357.67;1621266;88;21049;-68
2021/07/15 02:03:22;;;;;;;17.25;9.65;;;;;;;20.34;94.32;99364.58;1601181;88;21007;-68
2021/07/15 02:05:50;;;;;;;22.55;10.20;;;;;;;20.31;94.48;99368.13;1598950;88;21164;-68
2021/07/15 02:08:17;;;;;;;16.23;11.53;;;;;;;20.28;94.46;99377.27;1595379;88;21017;-68
2021/07/15 02:10:47;;;;;;;20.05;10.43;;;;;;;20.23;94.64;99373.44;1611470;87;21104;-68
2021/07/15 02:13:15;;;;;;;20.10;10.95;;;;;;;20.22;94.71;99369.05;1601685;87;21024;-67
2021/07/15 02:15:42;;;;;;;19.17;10.80;;;;;;;20.19;94.77;99362.88;1603107;87;20981;-67
2021/07/15 02:18:17;;;;;;;16.55;10.18;;;;;;;20.21;95.06;99361.09;1579033;89;20962;-67
2021/07/15 02:20:44;;;;;;;16.97;9.80;;;;;;;20.23;95.14;99362.28;1615085;87;21017;-68
2021/07/15 02:23:12;;;;;;;13.13;9.80;;;;;;;20.26;95.13;99367.69;1608834;87;21243;-68
2021/07/15 02:25:41;;;;;;;16.90;9.80;;;;;;;20.27;95.10;99374.27;1616096;87;21660;-69
2021/07/15 02:28:09;;;;;;;15.78;10.82;;;;;;;20.25;95.09;99365.48;1626841;86;21567;-68
2021/07/15 02:30:36;;;;;;;17.87;10.98;;;;;;;20.24;95.14;99362.49;1622644;85;21787;-69
2021/07/15 02:33:06;;;;;;;15.78;10.28;;;;;;;20.24;95.39;99364.48;1624844;85;20985;-68
2021/07/15 02:35:41;;;;;;;21.20;10.30;;;;;;;20.25;95.57;99370.27;1641292;85;20977;-68
2021/07/15 02:38:12;;;;;;;14.83;9.25;;;;;;;20.26;95.64;99371.27;1602697;86;21583;-68
2021/07/15 02:40:39;;;;;;;17.98;9.55;;;;;;;20.29;95.74;99382.24;1640482;86;20990;-67
2021/07/15 02:43:06;;;;;;;20.37;10.28;;;;;;;20.31;95.91;99381.27;1644664;86;21777;-68
2021/07/15 02:45:32;;;;;;;21.15;9.90;;;;;;;20.33;95.89;99379.70;1646324;86;20988;-68
2021/07/15 02:47:59;;;;;;;25.80;12.35;;;;;;;20.32;95.82;99382.27;1604519;86;21508;-68
2021/07/15 02:50:28;;;;;;;28.30;11.30;;;;;;;20.31;95.78;99386.25;1629910;85;21004;-68
2021/07/15 02:52:57;;;;;;;20.57;11.38;;;;;;;20.36;96.41;99388.69;1645148;86;21084;-68
2021/07/15 02:55:24;;;;;;;18.80;10.78;;;;;;;20.44;96.50;99394.56;1638642;86;21174;-68
2021/07/15 02:58:17;;;;;;;28.50;11.00;;;;;;;20.50;96.46;99394.20;1640369;84;20979;-68
2021/07/15 03:00:55;;;;;;;18.55;10.75;;;;;;;20.59;96.74;99387.71;1643780;86;21085;-68
2021/07/15 03:03:39;;;;;;;20.48;11.28;;;;;;;20.67;96.60;99390.77;1642694;85;20992;-68
2021/07/15 03:06:12;;;;;;;17.05;11.38;;;;;;;20.70;96.63;99386.61;1645446;86;21055;-68
2021/07/15 03:08:50;;;;;;;20.05;10.88;;;;;;;20.79;97.17;99391.05;1645142;85;21146;-68
2021/07/15 03:11:18;;;;;;;14.75;9.98;;;;;;;20.89;96.95;99380.53;1645072;86;20959;-68
2021/07/15 03:13:46;;;;;;;17.23;10.53;;;;;;;20.96;96.61;99386.16;1642328;86;20925;-68
2021/07/15 03:16:15;;;;;;;14.30;9.95;;;;;;;21.01;96.51;99384.39;1610850;87;21536;-68
2021/07/15 03:18:44;;;;;;;15.70;10.13;;;;;;;21.04;96.67;99385.01;1646360;85;21130;-68
2021/07/15 03:21:12;;;;;;;18.62;11.00;;;;;;;21.11;96.96;99386.45;1620332;86;21832;-68
2021/07/15 03:23:39;;;;;;;17.48;11.05;;;;;;;21.18;97.15;99389.28;1639841;86;20961;-68
2021/07/15 03:26:06;;;;;;;17.70;11.20;;;;;;;21.24;97.12;99388.34;1648217;86;21074;-67
2021/07/15 03:28:34;;;;;;;25.40;11.63;;;;;;;21.30;97.20;99386.78;1643721;86;21009;-68
2021/07/15 03:31:07;;;;;;;21.52;11.05;;;;;;;21.38;97.43;99382.20;1618630;86;21476;-68
2021/07/15 03:33:36;;;;;;;19.07;11.97;;;;;;;21.49;97.50;99385.05;1646135;86;21170;-68
2021/07/15 03:36:05;;;;;;;20.12;11.30;;;;;;;21.58;97.52;99392.46;1645447;85;21013;-68
2021/07/15 03:38:33;;;;;;;17.73;11.25;;;;;;;21.70;97.62;99387.12;1643109;86;21027;-68
2021/07/15 03:41:04;;;;;;;23.92;11.80;;;;;;;21.78;97.70;99382.36;1647953;85;20978;-68
2021/07/15 03:43:33;;;;;;;19.25;12.07;;;;;;;21.86;97.71;99381.98;1644080;86;21015;-68
2021/07/15 03:46:02;;;;;;;24.40;11.48;;;;;;;21.95;97.69;99387.97;1643894;86;20949;-68
2021/07/15 03:48:28;;;;;;;22.90;11.15;;;;;;;22.07;97.56;99386.83;1636767;85;21471;-68
2021/07/15 03:51:03;;;;;;;21.95;11.97;;;;;;;22.19;96.92;99387.05;1641429;85;21055;-68
2021/07/15 03:53:29;;;;;;;26.85;12.53;;;;;;;22.28;96.65;99387.45;1641425;85;21012;-69
2021/07/15 03:55:59;;;;;;;23.18;12.53;;;;;;;22.37;96.29;99387.86;1597742;87;20977;-69
2021/07/15 03:58:25;;;;;;;22.02;12.33;;;;;;;22.45;96.43;99387.27;1614627;87;21077;-69
2021/07/15 04:01:01;;;;;;;30.35;12.40;;;;;;;22.55;96.15;99385.04;1602115;87;21082;-68
2021/07/15 04:03:28;;;;;;;20.37;12.80;;;;;;;22.65;95.45;99385.03;1613226;87;21041;-67
2021/07/15 04:05:54;;;;;;;32.42;13.35;;;;;;;22.76;94.08;99376.64;1592877;89;21571;-68
2021/07/15 04:08:23;;;;;;;22.35;12.75;;;;;;;22.89;92.15;99387.64;1622246;87;20975;-68
2021/07/15 04:10:52;;;;;;;21.82;13.58;;;;;;;23.03;90.67;99387.62;1629824;87;21194;-69
2021/07/15 04:13:20;;;;;;;29.82;13.45;;;;;;;23.15;88.37;99379.36;1616135;87;20966;-69
2021/07/15 04:16:14;;;;;;;26.80;12.40;;;;;;;23.25;86.76;99378.53;1621074;87;20959;-68
2021/07/15 04:18:41;;;;;;;24.77;11.22;;;;;;;23.36;85.33;99385.50;1672637;84;21036;-68
2021/07/15 04:21:09;;;;;;;19.42;10.72;;;;;;;23.46;84.39;99381.87;1671212;84;21611;-67
2021/07/15 04:23:37;;;;;;;19.98;11.40;;;;;;;23.56;83.86;99381.66;1655038;84;20957;-69
2021/07/15 04:26:04;;;;;;;20.00;11.18;;;;;;;23.64;81.99;99377.02;1672639;84;20877;-69
2021/07/15 04:28:32;;;;;;;19.52;12.13;;;;;;;23.69;81.15;99375.16;1651384;84;20965;-69
2021/07/15 04:31:38;;;;;;;16.77;11.78;;;;;;;23.77;81.05;99370.92;1666560;84;20878;-69
2021/07/15 04:34:05;;;;;;;20.75;10.23;;;;;;;23.83;80.29;99366.48;1656758;85;20926;-68
2021/07/15 04:36:32;;;;;;;26.52;10.58;;;;;;;23.93;79.39;99362.82;1577774;88;21487;-68
2021/07/15 04:39:00;;;;;;;18.35;9.95;;;;;;;24.01;79.39;99366.57;1650826;85;20881;-69
2021/07/15 04:41:26;;;;;;;17.07;10.60;;;;;;;24.09;78.53;99365.92;1675474;85;21053;-69
2021/07/15 04:43:53;;;;;;;22.82;12.33;;;;;;;24.17;77.75;99365.27;1645062;84;21037;-69
2021/07/15 04:46:20;;;;;;;20.35;10.98;;;;;;;24.24;78.08;99366.02;1657769;84;21036;-71
2021/07/15 04:48:47;;;;;;;17.05;9.95;;;;;;;24.33;77.25;99370.55;1673940;84;21110;-69
2021/07/15 04:51:16;;;;;;;15.55;10.18;;;;;;;24.41;76.67;99364.89;1666947;84;21012;-68
2021/07/15 04:53:48;;;;;;;21.12;10.60;;;;;;;24.46;76.21;99365.25;1675105;84;21026;-68
2021/07/15 04:56:14;;;;;;;18.37;10.63;;;;;;;24.52;76.10;99355.78;1646311;85;21029;-69
2021/07/15 04:58:42;;;;;;;16.67;9.70;;;;;;;24.61;75.60;99363.12;1693233;83;21003;-69
2021/07/15 05:01:10;;;;;;;15.40;10.20;;;;;;;24.67;75.90;99363.66;1693361;83;21494;-69
2021/07/15 05:03:38;;;;;;;15.60;9.60;;;;;;;24.77;74.82;99363.98;1696123;84;20963;-68
2021/07/15 05:06:07;;;;;;;13.83;10.08;;;;;;;24.86;74.45;99359.44;1680039;83;21045;-68
2021/07/15 05:08:39;;;;;;;21.25;10.93;;;;;;;24.97;74.15;99363.58;1669018;84;20966;-68
2021/07/15 05:11:08;;;;;;;17.20;11.75;;;;;;;25.07;73.75;99371.09;1694161;84;20997;-68
2021/07/15 05:13:36;;;;;;;12.68;10.35;;;;;;;25.17;73.52;99370.78;1654454;84;21139;-68
2021/07/15 05:16:05;;;;;;;20.55;11.15;;;;;;;25.27;72.91;99369.88;1667265;84;21076;-71
2021/07/15 05:18:34;;;;;;;15.93;10.80;;;;;;;25.38;72.75;99364.92;1675561;84;20978;-69
2021/07/15 05:21:02;;;;;;;19.45;9.98;;;;;;;25.48;72.29;99363.97;1676887;83;21045;-68
2021/07/15 05:23:29;;;;;;;15.58;10.18;;;;;;;25.59;70.52;99360.41;1674113;83;21138;-73
2021/07/15 05:25:57;;;;;;;12.00;9.40;;;;;;;25.67;70.79;99356.93;1677869;84;21003;-69
2021/07/15 05:28:25;;;;;;;19.45;10.18;;;;;;;25.75;69.04;99361.84;1665952;85;21008;-69
2021/07/15 05:30:53;;;;;;;18.42;11.03;;;;;;;25.80;68.52;99357.95;1651126;86;20924;-69
2021/07/15 05:33:21;;;;;;;20.80;10.50;;;;;;;25.87;68.61;99359.88;1603141;88;20977;-70
2021/07/15 05:35:47;;;;;;;14.33;10.68;;;;;;;25.93;68.41;99353.35;1614908;87;21011;-71
2021/07/15 05:38:15;;;;;;;14.43;9.25;;;;;;;26.02;68.59;99352.00;1621586;86;21118;-71
2021/07/15 05:40:43;;;;;;;14.03;9.20;;;;;;;26.11;67.86;99357.89;1616648;87;20982;-72
2021/07/15 05:43:11;;;;;;;14.07;9.38;;;;;;;26.21;68.02;99359.13;1623161;87;21670;-72
2021/07/15 05:45:38;;;;;;;13.48;8.93;;;;;;;26.30;67.14;99364.22;1594458;87;21097;-72
2021/07/15 05:48:05;;;;;;;16.15;8.78;;;;;;;26.36;66.38;99361.14;1589125;89;21113;-73
2021/07/15 05:50:32;;;;;;;12.95;9.80;;;;;;;26.42;65.90;99367.08;1614759;87;21173;-74
2021/07/15 05:52:59;;;;;;;12.98;9.00;;;;;;;26.48;66.02;99365.38;1621045;87;21081;-73
2021/07/15 05:55:26;;;;;;;16.45;10.23;;;;;;;26.56;66.04;99363.42;1621327;87;21529;-73
2021/07/15 05:57:53;;;;;;;15.35;9.08;;;;;;;26.64;65.92;99359.84;1628764;87;21027;-71
2021/07/15 06:00:19;;;;;;;13.65;9.50;;;;;;;26.75;65.98;99362.47;1619378;87;21090;-73
2021/07/15 06:02:46;;;;;;;14.70;8.70;;;;;;;26.85;65.36;99362.89;1610884;87;21192;-74
2021/07/15 06:05:13;;;;;;;14.55;8.80;;;;;;;26.94;64.79;99361.11;1606741;87;20995;-75
2021/07/15 06:07:39;;;;;;;13.98;9.18;;;;;;;27.05;64.29;99360.14;1616082;87;21094;-75
2021/07/15 06:10:08;;;;;;;10.03;8.33;;;;;;;27.17;64.29;99358.06;1647633;85;21516;-72
2021/07/15 06:12:34;;;;;;;17.37;8.55;;;;;;;27.29;64.30;99356.81;1645789;85;21057;-74
2021/07/15 06:15:00;;;;;;;19.17;8.30;;;;;;;27.42;63.38;99356.95;1663430;85;21060;-74
2021/07/15 06:17:27;;;;;;;9.28;7.58;;;;;;;27.53;63.04;99356.73;1655479;85;21093;-74
2021/07/15 06:19:55;;;;;;;11.83;8.10;;;;;;;27.63;62.24;99357.16;1642551;85;21076;-74
2021/07/15 06:22:22;;;;;;;13.10;8.10;;;;;;;27.72;62.13;99353.74;1653147;85;21009;-73
2021/07/15 06:24:48;;;;;;;15.55;8.45;;;;;;;27.81;60.84;99350.48;1647587;85;21547;-72
2021/07/15 06:27:17;;;;;;;20.40;8.58;;;;;;;27.90;60.79;99348.47;1646063;85;21418;-72
2021/07/15 06:29:43;;;;;;;12.25;7.70;;;;;;;27.99;59.73;99345.05;1630106;87;21453;-75
2021/07/15 06:32:10;;;;;;;15.85;8.38;;;;;;;28.05;60.13;99342.68;1612048;87;20933;-73
2021/07/15 06:34:38;;;;;;;13.60;8.65;;;;;;;28.15;60.50;99344.45;1614980;88;20981;-73
2021/07/15 06:37:09;;;;;;;13.30;7.87;;;;;;;28.25;60.62;99334.18;1666479;85;21133;-72
2021/07/15 06:39:37;;;;;;;10.35;7.80;;;;;;;28.33;58.97;99332.73;1616799;87;21096;-70
2021/07/15 06:42:04;;;;;;;10.90;7.75;;;;;;;28.42;58.39;99333.53;1648124;86;21074;-69
2021/07/15 06:44:30;;;;;;;13.05;7.47;;;;;;;28.51;56.55;99334.50;1596069;87;20941;-72
2021/07/15 06:46:59;;;;;;;11.78;7.40;;;;;;;28.58;56.74;99330.70;1641664;85;21489;-73
2021/07/15 06:49:26;;;;;;;8.73;6.75;;;;;;;28.68;56.84;99331.05;1662328;85;21040;-71
2021/07/15 06:51:57;;;;;;;11.00;7.08;;;;;;;28.80;55.14;99333.14;1616916;87;21085;-70
2021/07/15 06:54:24;;;;;;;11.12;6.78;;;;;;;28.91;54.62;99328.61;1653392;86;21029;-71
2021/07/15 06:56:51;;;;;;;10.88;7.00;;;;;;;29.03;54.41;99329.30;1647170;86;20947;-72
2021/07/15 06:59:20;;;;;;;15.95;6.70;;;;;;;29.13;54.82;99323.17;1618056;87;21149;-72
2021/07/15 07:01:47;;;;;;;15.03;6.72;;;;;;;29.27;52.71;99323.39;1616215;87;21154;-69
2021/07/15 07:04:15;;;;;;;10.90;7.00;;;;;;;29.38;52.63;99330.31;1589813;89;21161;-69
2021/07/15 07:06:42;;;;;;;8.60;6.60;;;;;;;29.49;53.19;99331.42;1642701;85;20929;-68
2021/07/15 07:09:08;;;;;;;10.08;6.60;;;;;;;29.57;53.34;99331.37;1617035;87;21548;-69
2021/07/15 07:11:36;;;;;;;12.05;6.33;;;;;;;29.67;52.28;99329.47;1611882;87;20941;-69
2021/07/15 07:14:03;;;;;;;9.28;7.58;;;;;;;29.77;51.65;99331.98;1662257;86;21450;-69
2021/07/15 07:16:32;;;;;;;10.03;6.37;;;;;;;29.86;51.54;99326.44;1609356;87;20940;-69
2021/07/15 07:18:58;;;;;;;10.82;6.90;;;;;;;29.94;51.14;99327.01;1648216;86;21511;-69
2021/07/15 07:21:25;;;;;;;9.30;6.03;;;;;;;30.02;49.41;99328.40;1645510;86;20986;-70
2021/07/15 07:23:52;;;;;;;10.72;6.37;;;;;;;30.08;48.84;99329.39;1648803;87;21139;-71
2021/07/15 07:26:18;;;;;;;6.28;5.53;;;;;;;30.14;49.50;99319.70;1651656;87;20987;-70
2021/07/15 07:28:45;;;;;;;14.13;6.03;;;;;;;30.25;48.72;99324.39;1612406;87;21167;-71
2021/07/15 07:31:11;;;;;;;12.28;5.55;;;;;;;30.34;48.00;99329.37;1634378;86;21123;-70
2021/07/15 07:33:38;;;;;;;7.92;5.50;;;;;;;30.43;48.98;99326.02;1623387;87;20995;-69
2021/07/15 07:36:05;;;;;;;13.83;6.15;;;;;;;30.55;47.23;99325.82;1651284;83;21066;-77
2021/07/15 07:38:33;;;;;;;7.70;6.08;;;;;;;30.64;47.17;99330.16;1699676;83;21028;-71
2021/07/15 07:41:02;;;;;;;11.50;5.50;;;;;;;30.72;46.81;99333.55;1658951;84;21115;-71
2021/07/15 07:43:29;;;;;;;12.40;7.05;;;;;;;30.80;46.14;99336.30;1676989;83;20972;-70
2021/07/15 07:45:56;;;;;;;5.25;4.75;;;;;;;30.85;45.24;99330.84;1673906;83;21024;-70
2021/07/15 07:48:23;;;;;;;10.23;5.70;;;;;;;30.90;44.41;99335.75;1650682;86;21752;-68
2021/07/15 07:50:50;;;;;;;9.08;6.22;;;;;;;30.95;44.33;99335.17;1614416;88;21012;-70
2021/07/15 07:53:17;;;;;;;7.97;5.70;;;;;;;31.01;45.38;99334.12;1617614;87;21164;-69
2021/07/15 07:55:44;;;;;;;9.20;5.83;;;;;;;31.09;44.82;99332.61;1624789;85;23398;-69
2021/07/15 07:58:12;;;;;;;12.18;5.62;;;;;;;31.24;44.75;99335.72;1632577;86;21051;-70
2021/07/15 08:00:38;;;;;;;9.08;6.53;;;;;;;31.38;44.47;99338.03;1622826;86;21612;-70
2021/07/15 08:03:05;;;;;;;10.28;6.20;;;;;;;31.47;44.65;99345.81;1642179;86;20960;-69
2021/07/15 08:05:34;;;;;;;8.83;5.42;;;;;;;31.57;43.22;99338.95;1666940;85;21197;-69
2021/07/15 08:08:00;;;;;;;13.55;6.12;;;;;;;31.73;44.23;99335.91;1653922;85;20992;-72
2021/07/15 08:10:28;;;;;;;5.67;4.97;;;;;;;31.91;44.42;99325.88;1657657;85;21056;-69
2021/07/15 08:12:54;;;;;;;14.28;6.47;;;;;;;32.03;45.60;99327.20;1687523;84;21082;-69
2021/07/15 08:15:21;;;;;;;14.07;5.92;;;;;;;32.16;44.05;99336.40;1680943;84;21097;-69
2021/07/15 08:17:47;;;;;;;10.32;6.10;;;;;;;32.29;43.27;99332.69;1702792;83;21151;-70
2021/07/15 08:20:13;;;;;;;26.60;6.85;;;;;;;32.40;42.54;99335.22;1709846;83;21047;-69
2021/07/15 08:22:40;;;;;;;11.30;5.55;;;;;;;32.57;40.91;99330.67;1665418;85;20968;-69
2021/07/15 08:25:09;;;;;;;10.75;5.70;;;;;;;32.78;40.20;99336.90;1629899;85;21065;-69
2021/07/15 08:27:36;;;;;;;17.82;10.60;;;;;;;33.00;39.63;99325.35;1677632;84;20987;-69
2021/07/15 08:30:06;;;;;;;21.52;8.88;;;;;;;33.22;40.16;99334.51;1656947;84;21788;-69
2021/07/15 08:32:32;;;;;;;9.38;7.30;;;;;;;33.46;40.20;99331.83;1635123;86;20923;-70
2021/07/15 08:35:00;;;;;;;15.32;6.05;;;;;;;33.75;39.74;99336.95;1612912;88;21021;-71
2021/07/15 08:37:26;;;;;;;14.00;6.97;;;;;;;34.02;39.25;99336.88;1600102;88;21060;-69
2021/07/15 08:39:53;;;;;;;11.22;5.97;;;;;;;34.13;37.64;99337.13;1615111;87;21583;-70
2021/07/15 08:42:22;;;;;;;7.85;5.67;;;;;;;34.26;37.66;99336.11;1613077;88;21122;-71
2021/07/15 08:44:49;;;;;;;12.35;5.83;;;;;;;34.41;37.06;99333.53;1607880;87;21044;-69
2021/07/15 08:47:17;;;;;;;8.65;5.58;;;;;;;34.51;37.19;99334.90;1643165;86;20988;-70
2021/07/15 08:49:44;;;;;;;9.73;5.95;;;;;;;34.64;36.50;99334.81;1666687;85;21034;-69
2021/07/15 08:52:15;;;;;;;10.30;6.05;;;;;;;34.71;35.98;99337.27;1596374;88;21194;-71
2021/07/15 08:55:00;;;;;;;;;;;;;;;34.76;36.70;99330.90;1606501;87;21170;-70
2021/07/15 08:57:24;;;;;;;20.70;6.72;;;;;;;34.95;37.48;99330.80;1600636;86;20426;-70
2021/07/15 08:59:50;;;;;;;13.72;6.53;;;;;;;34.88;36.60;99326.89;1636795;85;21002;-70
2021/07/15 09:02:22;;;;;;;8.55;5.35;;;;;;;34.82;38.07;99324.55;1590264;87;21045;-70
2021/07/15 09:04:48;;;;;;;;;;;;;;;34.89;36.15;99328.46;1606019;88;21452;-71
2021/07/15 09:07:16;;;;;;;11.63;6.15;;;;;;;34.98;36.67;99326.33;1659292;84;21096;-71
2021/07/15 09:09:45;;;;;;;7.40;5.75;;;;;;;35.09;34.70;99322.91;1651398;86;21592;-69
2021/07/15 09:12:13;;;;;;;8.45;5.78;;;;;;;35.23;36.10;99317.08;1643461;85;20971;-70
2021/07/15 09:14:53;;;;;;;9.30;6.33;;;;;;;35.38;35.60;99317.89;1638447;86;20991;-73
2021/07/15 09:17:32;;;;;;;13.88;6.65;;;;;;;35.46;35.03;99317.64;1644344;86;21132;-70
2021/07/15 09:19:59;;;;;;;10.10;6.12;;;;;;;35.47;34.51;99317.80;1634637;86;21139;-67
2021/07/15 09:22:26;;;;;;;15.03;5.90;;;;;;;35.51;34.21;99312.67;1637797;86;21070;-72
2021/07/15 09:24:53;;;;;;;18.82;6.95;;;;;;;35.54;34.19;99315.19;1635493;86;21454;-72
2021/07/15 09:27:26;;;;;;;34.98;7.25;;;;;;;35.54;33.92;99305.98;1658123;85;20974;-72
2021/07/15 09:30:13;;;;;;;20.50;7.17;;;;;;;35.59;34.66;99305.94;1604358;88;21036;-73
2021/07/15 09:32:57;;;;;;;12.43;6.45;;;;;;;35.68;35.52;99303.77;1633462;86;21103;-72
2021/07/15 09:35:29;;;;;;;11.18;6.22;;;;;;;35.69;34.65;99301.70;1637295;85;20962;-71
2021/07/15 09:38:13;;;;;;;11.33;6.12;;;;;;;35.64;34.57;99305.24;1620478;86;21589;-72
2021/07/15 09:40:54;;;;;;;13.32;6.85;;;;;;;35.72;33.95;99302.14;1584103;88;21458;-72
2021/07/15 09:43:28;;;;;;;11.80;6.15;;;;;;;35.70;33.86;99307.55;1584355;88;20995;-71
2021/07/15 09:46:03;;;;;;;14.35;6.67;;;;;;;35.62;33.35;99302.88;1603313;87;21449;-68
2021/07/15 09:48:31;;;;;;;11.30;5.78;;;;;;;35.57;33.60;99308.49;1619373;86;21340;-73
2021/07/15 09:50:59;;;;;;;12.53;6.30;;;;;;;35.40;33.93;99306.13;1618358;86;21537;-71
2021/07/15 09:53:33;;;;;;;9.73;6.00;;;;;;;35.40;34.04;99307.55;1611866;87;21141;-71
2021/07/15 09:56:17;;;;;;;14.58;6.15;;;;;;;35.41;33.32;99309.13;1625867;86;20993;-73
2021/07/15 09:58:48;;;;;;;7.83;6.20;;;;;;;35.53;34.80;99309.33;1632199;86;21930;-71
2021/07/15 10:01:20;;;;;;;8.33;5.42;;;;;;;35.70;34.28;99307.55;1621629;86;21080;-72
2021/07/15 10:03:51;;;;;;;15.28;6.62;;;;;;;35.85;32.17;99303.26;1684959;83;20969;-72
2021/07/15 10:06:18;;;;;;;11.70;5.83;;;;;;;35.85;31.82;99298.97;1683447;83;21019;-70
2021/07/15 10:08:52;;;;;;;12.18;6.15;;;;;;;35.91;33.36;99306.98;1682577;83;21558;-71
2021/07/15 10:11:26;;;;;;;8.68;5.87;;;;;;;36.05;31.86;99306.96;1673092;83;22192;-71
2021/07/15 10:14:13;;;;;;;9.63;6.00;;;;;;;36.17;31.29;99307.13;1684545;83;21522;-71
2021/07/15 10:16:45;;;;;;;10.93;5.70;;;;;;;36.34;33.33;99308.20;1693685;83;20980;-70
2021/07/15 10:19:19;;;;;;;8.58;5.55;;;;;;;36.53;31.29;99305.83;1667829;83;20892;-70
2021/07/15 10:21:46;;;;;;;10.53;5.10;;;;;;;36.55;30.83;99314.05;1669782;84;21533;-74
2021/07/15 10:24:23;;;;;;;9.73;5.42;;;;;;;36.56;30.95;99298.47;1613957;87;21038;-72
2021/07/15 10:26:56;;;;;;;12.82;5.42;;;;;;;36.65;31.47;99304.05;1619257;85;20979;-72
2021/07/15 10:29:24;;;;;;;11.55;5.67;;;;;;;36.71;31.17;99294.89;1594238;88;20939;-71
2021/07/15 10:31:53;;;;;;;10.05;5.55;;;;;;;36.77;31.37;99294.21;1613408;87;21029;-72
2021/07/15 10:34:20;;;;;;;20.12;6.80;;;;;;;36.80;31.13;99296.06;1621750;87;21136;-72
2021/07/15 10:36:47;;;;;;;10.55;5.53;;;;;;;36.78;30.76;99287.20;1614137;87;21087;-71
2021/07/15 10:39:14;;;;;;;9.40;5.05;;;;;;;36.70;31.33;99290.47;1597354;88;21082;-72
2021/07/15 10:41:44;;;;;;;11.93;5.55;;;;;;;36.63;31.28;99291.53;1604075;87;21088;-72
2021/07/15 10:44:11;;;;;;;9.75;5.28;;;;;;;36.54;30.65;99281.67;1604230;87;21019;-71
2021/07/15 10:46:39;;;;;;;11.03;6.00;;;;;;;36.52;31.21;99287.89;1613822;86;20997;-71
2021/07/15 10:49:10;;;;;;;13.22;5.03;;;;;;;36.58;31.65;99283.03;1575911;90;21556;-72
2021/07/15 10:51:36;;;;;;;8.73;5.55;;;;;;;36.68;33.26;99287.96;1603961;87;21186;-71
2021/07/15 10:54:05;;;;;;;5.58;4.95;;;;;;;36.75;30.47;99286.13;1584040;88;21031;-70
2021/07/15 10:56:32;;;;;;;10.88;6.05;;;;;;;36.71;30.85;99276.31;1632294;86;21054;-71
2021/07/15 10:59:04;;;;;;;19.90;6.12;;;;;;;36.76;31.31;99277.69;1653700;84;20949;-71
2021/07/15 11:01:41;;;;;;;14.10;5.30;;;;;;;36.79;30.58;99278.13;1659678;85;20936;-71
2021/07/15 11:04:16;;;;;;;10.03;5.30;;;;;;;36.73;31.55;99279.31;1704360;83;20975;-72
2021/07/15 11:06:56;;;;;;;7.03;5.35;;;;;;;36.76;30.87;99276.91;1697607;84;21447;-71
2021/07/15 11:09:29;;;;;;;8.50;4.85;;;;;;;36.86;30.89;99274.04;1690096;84;21512;-71
2021/07/15 11:11:58;;;;;;;8.83;5.45;;;;;;;36.92;30.22;99276.31;1643196;85;37096;-71
2021/07/15 11:14:44;;;;;;;6.37;4.90;;;;;;;36.89;29.31;99270.17;1629378;86;21174;-71
2021/07/15 11:17:30;;;;;;;7.62;5.08;;;;;;;36.89;28.86;99265.88;1611199;88;21032;-71
2021/07/15 11:20:05;;;;;;;7.85;4.97;;;;;;;36.84;29.72;99265.17;1620340;87;20981;-71
2021/07/15 11:22:45;;;;;;;8.33;5.20;;;;;;;36.86;31.21;99265.45;1610925;88;21190;-72
2021/07/15 11:25:42;;;;;;;10.90;5.25;;;;;;;36.91;29.38;99261.87;1613824;87;21105;-73
2021/07/15 11:28:16;;;;;;;8.60;5.55;;;;;;;36.92;29.93;99258.52;1676542;83;20946;-71
2021/07/15 11:30:48;;;;;;;7.03;5.00;;;;;;;36.88;29.81;99260.02;1650538;84;21004;-73
2021/07/15 11:33:26;;;;;;;8.98;5.15;;;;;;;36.79;30.53;99255.89;1680108;84;20977;-71
2021/07/15 11:36:03;;;;;;;7.22;4.92;;;;;;;36.80;30.52;99254.59;1675162;85;21148;-70
2021/07/15 11:38:30;;;;;;;11.55;6.22;;;;;;;36.82;30.64;99253.45;1676165;85;20969;-68